Weather observations for the past three days for
Faaa International Airport
Imperial (Metric)
Date Time (-10) Wind (mph) Vis. (mi.) Weather Sky Cond. Temperature (ºF) Relative Humidity Wind Chill (°F) Heat Index (°F) Pressure Precipitation (in)
Air Dwpt 6 hour altimeter (in) sea level (mb) 1 hr 3 hr 6 hr
Max. Min.
04 23:00 SE 2 0.00 A Few Clouds FEW029 80.6 73.4 79% 85 0 0.0
04 22:30 SE 3 0.00 A Few Clouds FEW028 80.6 73.4 79% 85 0 0.0
04 22:00 Vrbl 2 0.00 A Few Clouds FEW030 80.6 73.4 79% 85 0 0.0
04 21:30 S 5 0.00 A Few Clouds FEW025 80.6 71.6 74% 85 0 0.0
04 21:00 SE 8 0.00 NULL NULL 82.4 71.6 70% 87 0 0.0
04 20:30 E 2 0.00 NULL NULL 80.6 69.8 70% 84 0 0.0
04 20:00 E 2 0.00 NULL NULL 80.6 71.6 74% 85 0 0.0
04 19:30 E 3 0.00 NULL NULL 80.6 71.6 74% 85 0 0.0
04 19:00 NE 7 0.00 NULL NULL 82.4 71.6 70% 87 0 0.0
04 18:30 NE 6 0.00 NULL NULL 82.4 71.6 70% 87 0 0.0
04 18:00 NE 10 0.00 NULL NULL 82.4 71.6 70% 87 0 0.0
04 17:30 NE 10 0.00 NULL NULL 84.2 71.6 66% 90 0 0.0
04 17:00 NE 9 0.00 NULL NULL 84.2 73.4 70% 91 0 0.0
04 16:30 NE 9 0.00 NULL NULL 84.2 73.4 70% 91 0 0.0
04 16:00 NE 10 0.00 A Few Clouds FEW025 84.2 75.2 74% 92 0 0.0
04 15:30 NE 8 0.00 Mostly Cloudy SCT028 BKN033 BKN046 84.2 73.4 70% 91 0 0.0
04 15:00 NE 8 0.00 Mostly Cloudy FEW023 SCT037 BKN096 86 73.4 66% 93 0 0.0
04 14:30 NE 7 0.00 Mostly Cloudy FEW027 BKN096 86 75.2 70% 95 0 0.0
04 14:00 N 6 0.00 A Few Clouds FEW023 86 75.2 70% 95 0 0.0
04 13:30 N 6 0.00 A Few Clouds FEW023 86 75.2 70% 95 0 0.0
04 13:00 N 6 0.00 A Few Clouds FEW023 87.8 77 70% 100 0 0.0
04 12:30 N 7 0.00 A Few Clouds FEW023 87.8 77 70% 100 0 0.0
04 12:00 NE 8 0.00 A Few Clouds FEW042 86 75.2 70% 95 0 0.0
04 11:30 NE 10 0.00 NULL NULL 87.8 77 70% 100 0 0.0
04 11:00 NE 12 0.00 NULL NULL 87.8 75.2 66% 98 0 0.0
04 10:30 NE 10 0.00 NULL NULL 86 73.4 66% 93 0 0.0
04 10:00 NE 9 0.00 NULL NULL 86 75.2 70% 95 0 0.0
04 09:30 NE 8 0.00 NULL NULL 86 75.2 70% 95 0 0.0
04 09:00 NE 8 0.00 NULL NULL 86 75.2 70% 95 0 0.0
04 08:30 NE 6 0.00 NULL NULL 86 73.4 66% 93 0 0.0
04 08:00 Vrbl 3 0.00 NULL NULL 86 71.6 62% 92 0 0.0
04 07:30 Vrbl 1 0.00 NULL NULL 84.2 73.4 70% 91 0 0.0
04 07:00 SE 2 0.00 NULL NULL 80.6 73.4 79% 85 0 0.0
04 06:30 S 1 0.00 NULL NULL 77 71.6 83% 78 0 0.0
04 06:00 Vrbl 2 0.00 NULL NULL 78.8 71.6 79% 82 0 0.0
04 05:30 E 3 0.00 NULL NULL 77 71.6 83% 78 0 0.0
04 05:00 SE 3 0.00 NULL NULL 77 69.8 79% 79 0 0.0
04 04:30 E 3 0.00 NULL NULL 78.8 69.8 74% 81 0 0.0
04 04:00 E 5 0.00 NULL NULL 78.8 69.8 74% 81 0 0.0
04 03:30 NE 5 0.00 NULL NULL 78.8 69.8 74% 81 0 0.0
04 03:00 E 3 0.00 NULL NULL 78.8 69.8 74% 81 0 0.0
04 02:30 E 3 0.00 A Few Clouds FEW023 78.8 69.8 74% 81 0 0.0
04 02:00 E 5 0.00 NULL NULL 80.6 69.8 70% 84 0 0.0
04 01:30 E 5 0.00 A Few Clouds FEW064 80.6 69.8 70% 84 0 0.0
04 01:00 E 6 0.00 Mostly Cloudy FEW023 BKN260 80.6 69.8 70% 84 0 0.0
04 00:30 E 7 0.00 Mostly Cloudy FEW023 BKN260 78.8 71.6 79% 82 0 0.0
04 00:00 Vrbl 1 0.00 Mostly Cloudy FEW023 BKN260 78.8 69.8 74% 81 0 0.0
03 23:30 Vrbl 2 0.00 Mostly Cloudy FEW023 BKN260 78.8 69.8 74% 81 0 0.0
03 23:00 Calm 0.00 Mostly Cloudy FEW023 BKN260 78.8 69.8 74% 81 0 0.0
03 22:30 Vrbl 2 0.00 NULL NULL 78.8 69.8 74% 81 0 0.0
03 22:00 E 3 0.00 Mostly Cloudy FEW023 BKN260 78.8 69.8 74% 81 0 0.0
03 21:30 Vrbl 1 0.00 NULL NULL 78.8 69.8 74% 81 0 0.0
03 21:00 E 3 0.00 Mostly Cloudy FEW023 BKN260 78.8 69.8 74% 81 0 0.0
03 20:30 Vrbl 2 0.00 NULL NULL 80.6 69.8 70% 84 0 0.0
03 20:00 E 3 0.00 NULL NULL 80.6 69.8 70% 84 0 0.0
03 19:30 Vrbl 1 0.00 NULL NULL 80.6 69.8 70% 84 0 0.0
03 19:00 E 2 0.00 NULL NULL 80.6 69.8 70% 84 0 0.0
03 18:30 NE 5 0.00 NULL NULL 82.4 69.8 66% 86 0 0.0
03 18:00 NE 8 0.00 NULL NULL 82.4 71.6 70% 87 0 0.0
03 17:30 NE 8 0.00 NULL NULL 84.2 71.6 66% 90 0 0.0
03 17:00 NE 10 0.00 NULL NULL 84.2 73.4 70% 91 0 0.0
03 16:30 NE 10 0.00 NULL NULL 84.2 73.4 70% 91 0 0.0
03 16:00 NE 10 0.00 NULL NULL 84.2 73.4 70% 91 0 0.0
03 15:30 NE 12 0.00 Mostly Cloudy FEW020 BKN260 86 71.6 62% 92 0 0.0
03 15:00 NE 17 G 29 0.00 NULL NULL 86 75.2 70% 95 0 0.0
03 14:30 NE 17 G 29 0.00 NULL NULL 86 73.4 66% 93 0 0.0
03 14:00 NE 17 G 29 0.00 NULL NULL 87.8 75.2 66% 98 0 0.0
03 13:30 NE 17 G 29 0.00 NULL NULL 87.8 75.2 66% 98 0 0.0
03 13:00 NE 15 0.00 NULL NULL 87.8 73.4 62% 96 0 0.0
03 12:30 NE 13 0.00 NULL NULL 87.8 73.4 62% 96 0 0.0
03 12:00 NE 13 0.00 NULL NULL 87.8 71.6 59% 94 0 0.0
03 11:30 NE 13 0.00 NULL NULL 87.8 75.2 66% 98 0 0.0
03 11:00 NE 15 0.00 NULL NULL 86 75.2 70% 95 0 0.0
03 10:30 NE 14 0.00 Mostly Cloudy FEW023 BKN100 87.8 73.4 62% 96 0 0.0
03 10:00 NE 13 0.00 Mostly Cloudy FEW023 BKN100 86 75.2 70% 95 0 0.0
03 09:30 NE 10 0.00 NULL NULL 84.2 73.4 70% 91 0 0.0
03 09:00 E 9 0.00 NULL NULL 84.2 71.6 66% 90 0 0.0
03 08:30 NE 10 0.00 NULL NULL 84.2 75.2 74% 92 0 0.0
03 08:00 NE 8 0.00 Mostly Cloudy FEW023 BKN100 82.4 73.4 74% 88 0 0.0
03 07:30 E 6 0.00 Mostly Cloudy FEW023 BKN100 82.4 69.8 66% 86 0 0.0
03 07:00 E 5 0.00 Partly Cloudy FEW023 SCT100 80.6 69.8 70% 84 0 0.0
03 06:30 NE 7 0.00 NULL NULL 80.6 71.6 74% 85 0 0.0
03 06:00 E 5 0.00 Partly Cloudy FEW023 SCT100 78.8 69.8 74% 81 0 0.0
03 05:30 Vrbl 2 0.00 Partly Cloudy FEW023 SCT100 80.6 69.8 70% 84 0 0.0
03 05:00 E 6 0.00 Partly Cloudy FEW023 SCT100 80.6 68 66% 83 0 0.0
03 04:30 Vrbl 2 0.00 Partly Cloudy FEW023 SCT100 80.6 68 66% 83 0 0.0
03 04:00 E 6 0.00 Partly Cloudy FEW023 SCT100 80.6 69.8 70% 84 0 0.0
03 03:30 NE 8 0.00 Partly Cloudy FEW023 SCT100 78.8 71.6 79% 82 0 0.0
03 03:00 E 3 0.00 Partly Cloudy FEW023 SCT100 78.8 69.8 74% 81 0 0.0
03 02:30 NE 12 0.00 Partly Cloudy FEW023 SCT100 80.6 69.8 70% 84 0 0.0
03 02:00 E 6 0.00 Partly Cloudy FEW023 SCT100 80.6 69.8 70% 84 0 0.0
03 01:30 NE 13 0.00 Mostly Cloudy FEW062 BKN100 82.4 73.4 74% 88 0 0.0
03 01:00 NE 12 0.00 NULL NULL 82.4 73.4 74% 88 0 0.0
03 00:30 NE 13 0.00 A Few Clouds FEW023 82.4 71.6 70% 87 0 0.0
03 00:00 NE 15 0.00 NULL NULL 82.4 71.6 70% 87 0 0.0
02 23:30 NE 9 0.00 A Few Clouds FEW062 80.6 69.8 70% 84 0 0.0
02 23:00 NE 8 0.00 A Few Clouds FEW023 80.6 69.8 70% 84 0 0.0
02 22:30 NE 6 0.00 A Few Clouds FEW023 80.6 68 66% 83 0 0.0
02 22:00 NE 10 0.00 A Few Clouds FEW023 82.4 68 62% 85 0 0.0
02 21:30 E 10 0.00 NULL NULL 82.4 68 62% 85 0 0.0
02 21:00 NE 14 0.00 NULL NULL 82.4 71.6 70% 87 0 0.0
02 20:30 E 10 0.00 NULL NULL 82.4 69.8 66% 86 0 0.0
02 20:00 NE 8 0.00 NULL NULL 80.6 69.8 70% 84 0 0.0
02 19:30 E 5 0.00 NULL NULL 82.4 69.8 66% 86 0 0.0
02 19:00 NE 17 G 35 0.00 Showers Rain SCT018TCU SCT035 82.4 69.8 66% 86 0 0.0
02 18:30 NE 17 G 35 0.00 Showers Rain SCT018TCU SCT035 84.2 71.6 66% 90 0 0.0
02 18:00 NE 17 G 35 0.00 Showers Rain NULL 84.2 69.8 62% 88 0 0.0
02 17:30 NE 17 G 35 0.00 Showers Rain SCT018TCU SCT035 84.2 69.8 62% 88 0 0.0
02 17:00 NE 17 G 35 0.00 Showers Rain SCT018TCU SCT035 86 68 55% 89 0 0.0
02 16:30 NE 17 G 35 0.00 Showers Rain SCT018TCU SCT035 86 69.8 59% 91 0 0.0
02 16:00 NE 17 G 35 0.00 Showers Rain SCT018TCU SCT035 87.8 71.6 59% 94 0 0.0
02 15:30 NE 17 G 35 0.00 Showers Rain FEW035 SCT074 BKN084 SCT018TCU SCT035 86 68 55% 89 0 0.0
02 15:00 NE 17 G 35 0.00 Showers Rain SCT018TCU SCT035 86 71.6 62% 92 0 0.0
02 14:30 NE 17 G 35 0.00 Showers Rain NULL 87.8 73.4 62% 96 0 0.0
02 14:00 NE 17 G 35 0.00 Showers Rain FEW037 SCT062 BKN074 SCT018TCU SCT035 87.8 71.6 59% 94 0 0.0
02 13:30 NE 17 G 35 0.00 Showers Rain NULL 87.8 73.4 62% 96 0 0.0
02 13:00 NE 17 G 29 0.00 Showers Rain NULL 87.8 71.6 59% 94 0 0.0
02 12:30 NE 17 G 29 0.00 Showers Rain FEW017CB SCT020 BKN035 89.6 71.6 55% 96 0 0.0
02 12:00 NE 17 G 29 0.00 Showers Rain FEW025 SCT072 FEW017CB SCT020 BKN035 86 73.4 66% 93 0 0.0
02 11:30 NE 17 G 29 0.00 Showers Rain FEW017CB SCT020 BKN035 86 73.4 66% 93 0 0.0
02 11:00 NE 17 G 29 0.00 Showers Rain FEW017CB SCT020 BKN035 87.8 71.6 59% 94 0 0.0
02 10:30 NE 17 G 29 0.00 Showers Rain FEW017CB SCT020 BKN035 87.8 71.6 59% 94 0 0.0
02 10:00 NE 17 G 29 0.00 Showers Rain FEW058 FEW017CB SCT020 BKN035 87.8 73.4 62% 96 0 0.0
02 09:30 NE 17 G 29 0.00 Showers Rain FEW017CB SCT020 BKN035 87.8 73.4 62% 96 0 0.0
02 09:00 NE 17 G 29 0.00 Showers Rain NULL 86 73.4 66% 93 0 0.0
02 08:30 NE 17 G 29 0.00 Showers Rain FEW017CB SCT020 BKN035 82.4 69.8 66% 86 0 0.0
02 08:00 Vrbl 2 0.00 NULL NULL 84.2 71.6 66% 90 0 0.0
02 07:30 NE 3 0.00 NULL NULL 78.8 71.6 79% 82 0 0.0
02 07:00 NE 17 0.00 Showers Rain FEW023 SCT050 77 69.8 79% 79 0 0.0
02 06:30 NE 17 0.00 Showers Rain FEW023 SCT050 77 69.8 79% 79 0 0.0
02 06:00 NE 17 0.00 Showers Rain NULL 77 69.8 79% 79 0 0.0
02 05:30 NE 17 0.00 Showers Rain NULL 77 69.8 79% 79 0 0.0
02 05:00 NE 17 0.00 Showers Rain NULL 77 69.8 79% 79 0 0.0
02 04:30 NE 17 0.00 Showers Rain FEW017TCU SCT040 77 69.8 79% 79 0 0.0
02 04:00 NE 17 0.00 Showers Rain FEW017TCU SCT040 77 71.6 83% 78 0 0.0
02 03:30 NE 17 0.00 Showers Rain NULL 78.8 71.6 79% 82 0 0.0
02 03:00 NE 17 0.00 Showers Rain NULL 78.8 71.6 79% 82 0 0.0
02 02:30 NE 17 0.00 Showers Rain NULL 80.6 71.6 74% 85 0 0.0
02 02:00 NE 17 0.00 Showers Rain FEW070 OVC110 FEW017TCU SCT040 80.6 73.4 79% 85 0 0.0
02 01:30 NE 17 0.00 Showers Rain NULL 78.8 71.6 79% 82 0 0.0
02 01:00 NE 17 0.00 Showers Rain NULL 78.8 71.6 79% 82 0 0.0
02 00:30 NE 17 0.00 Showers Rain NULL 78.8 71.6 79% 82 0 0.0
02 00:00 E 3 0.00 A Few Clouds FEW036 78.8 71.6 79% 82 0 0.0
01 23:30 E 3 0.00 A Few Clouds FEW036 78.8 71.6 79% 82 0 0.0
Date Time (-10) Wind (mph) Vis. (mi.) Weather Sky Cond. Air Dwpt Max. Min. Relative Humidity Wind Chill (°F) Heat Index (°F) altimeter (in) sea level (mb) 1 hr 3 hr 6 hr
6 hour
Temperature (ºF) Pressure Precipitation (in)